METAR v bližini

 

LJLJ - Ljubljana/Brnik, Slovenia
Oddaljenost od postaje: Z 41km
Podatki zajeti: 13/12/2018 20:30
Rahel sneg, Oblačno
Rahel sneg, Oblačno
 Veter iz smeri Z
Veter: Z 4 km/h
Temperatura: -1°C
Rosišče: -2°C
Vlažnost: 93%
Tlak: 1017 hPa
Stanje: Rahel sneg
Oblačnost: Oblačno
Vidljivost: 10 km
Podrobnosti o oblakih: Delno oblačno 427 m
Oblačno 1067 m
2018/12/13 19:30 LJLJ 131930Z 28002KT 9999 -SN SCT014 OVC035 M01/M02 Q1017 NOSIG
LJMB - Maribor, Slovenia
Oddaljenost od postaje: SV 63km
Podatki zajeti: 13/12/2018 20:30
Oblačno
Oblačno
 Veter iz smeri SSZ
Veter: SSZ 11 km/h
Temperatura: 0°C
Občutek mraza zaradi vetra: -4°C
Rosišče: -3°C
Vlažnost: 80%
Tlak: 1019 hPa
Oblačnost: Oblačno
Vidljivost: 10 km
Podrobnosti o oblakih: Oblačno 671 m
2018/12/13 19:30 LJMB 131930Z 34006KT 9999 OVC022 M00/M03 Q1019
 
LJPZ - Portoroz, Slovenia
Oddaljenost od postaje: JZ 130km
Podatki zajeti: 13/12/2018 20:30
Rahlo dežuje, Sneg, Oblačno
Rahlo dežuje, Sneg, Oblačno
 Veter iz smeri SSZ
Veter: SSZ 6 km/h
Temperatura: 4°C
Rosišče: -1°C
Vlažnost: 70%
Tlak: 1015 hPa
Stanje: Rahlo dežuje, Sneg
Oblačnost: Oblačno
Vidljivost: 10 km
Podrobnosti o oblakih: Oblačno 396 m
2018/12/13 19:30 LJPZ 131930Z 34003KT 290V030 9999 -RASN OVC013 04/M01 Q1015
LJCE - Cerklje, Slovenia
Oddaljenost od postaje: VJV 49km
Podatki zajeti: 13/12/2018 20:00
Oblačno
Oblačno
 Veter iz smeri V
Veter: V 11 km/h
Temperatura: 1°C
Občutek mraza zaradi vetra: -2°C
Rosišče: -2°C
Vlažnost: 81%
Tlak: 1019 hPa
Oblačnost: Oblačno
Vidljivost: 10 km
Podrobnosti o oblakih: Oblačno 610 m
2018/12/13 19:00 LJCE 131900Z 09006KT 9999 OVC020 01/M02 Q1019 RMK WHT
 
LDZA - Zagreb/Pleso, Croatia
Oddaljenost od postaje: VJV 96km
Podatki zajeti: 13/12/2018 20:30
Oblačno
Oblačno
 Veter iz smeri SV
Veter: SV 17 km/h
Temperatura: 1°C
Občutek mraza zaradi vetra: -3°C
Rosišče: -1°C
Vlažnost: 87%
Tlak: 1019 hPa
Oblačnost: Oblačno
Vidljivost: 10 km
Podrobnosti o oblakih: Pretežno oblačno 396 m
Oblačno 1067 m
2018/12/13 19:30 LDZA 131930Z 05009KT 9999 BKN013 OVC035 01/M01 Q1019 NOSIG
LDRI - Rijeka/Omisalj, Croatia
Oddaljenost od postaje: JJZ 109km
Podatki zajeti: 13/12/2018 20:30
Pretežno oblačno
Pretežno oblačno
 Veter iz smeri SV
Veter: SV 20 km/h
Temperatura: 5°C
Občutek mraza zaradi vetra: 1°C
Rosišče: -5°C
Vlažnost: 49%
Tlak: 1015 hPa
Oblačnost: Pretežno oblačno
Vidljivost: 10 km
Podrobnosti o oblakih: Rahlo oblačno 91 m
Delno oblačno 1006 m
Pretežno oblačno 1585 m
2018/12/13 19:30 LDRI 131930Z 05011KT 010V100 9999 FEW003 SCT033 BKN052 05/M05 Q1015
 
LDPL - Pula, Croatia
Oddaljenost od postaje: JJZ 164km
Podatki zajeti: 13/12/2018 20:30
Rahlo oblačno
Rahlo oblačno
 Veter iz smeri VSV
Veter: VSV 39 km/h
Temperatura: 5°C
Občutek mraza zaradi vetra: -1°C
Rosišče: -1°C
Vlažnost: 66%
Tlak: 1013 hPa
Oblačnost: Rahlo oblačno
Vidljivost: 10 km
Podrobnosti o oblakih: Rahlo oblačno 1067 m
2018/12/13 19:30 LDPL 131930Z 07021KT 9999 FEW035 05/M01 Q1013 NOSIG
LOWK - Klagenfurt(Civ/M, Austria
Oddaljenost od postaje: SZ 76km
Podatki zajeti: 13/12/2018 20:20
Rahel sneg, Oblačno
Rahel sneg, Oblačno
 Veter iz smeri V
Veter: V 6 km/h
Temperatura: -1°C
Rosišče: -4°C
Vlažnost: 80%
Tlak: 1017 hPa
Stanje: Rahel sneg
Oblačnost: Oblačno
Vidljivost: 10 km
Podrobnosti o oblakih: Delno oblačno 610 m
Oblačno 2438 m
2018/12/13 19:20 LOWK 131920Z 08003KT 040V120 9999 -SN SCT020 OVC080 M01/M04 Q1017 TEMPO -RASN
 
LOWG - Graz (mil/Civ), Austria
Oddaljenost od postaje: SSV 100km
Podatki zajeti: 13/12/2018 20:20
Pretežno oblačno
Pretežno oblačno
 Veter iz smeri JJV
Veter: JJV 7 km/h
Temperatura: -1°C
Občutek mraza zaradi vetra: -4°C
Rosišče: -2°C
Vlažnost: 93%
Tlak: 1019 hPa
Oblačnost: Pretežno oblačno
Vidljivost: 10 km
Podrobnosti o oblakih: Rahlo oblačno 274 m
Delno oblačno 366 m
Pretežno oblačno 457 m
2018/12/13 19:20 LOWG 131920Z AUTO 16004KT 9999 FEW009 SCT012 BKN015 M01/M02 Q1019 R17/19//95 TEMPO SCT010 BKN014
LOWZ - Zell Am See, Austria
Oddaljenost od postaje: SZ 211km
Podatki zajeti: 31/12/2016 17:00
Ni posodobljen
Jasno
Jasno
 Veter iz smeri spremenljiv
Veter: spremenljiv 4 km/h
Temperatura: -4°C
Rosišče: -7°C
Vlažnost: 80%
Tlak: 1031 hPa
Oblačnost: Jasno
2016/12/31 16:00 LOWZ 311600Z VRB02KT 50KM SKC M04/M07 Q1031
 
LOAN - Wr.neustadt East, Austria
Oddaljenost od postaje: SSV 212km
Podatki zajeti: 13/12/2018 16:00
Ni posodobljen
Meglica, Pretežno oblačno
Meglica, Pretežno oblačno
 Veter iz smeri V
Veter: V 9 km/h
Stanje: Meglica
Oblačnost: Pretežno oblačno
Vidljivost: 4 km
Podrobnosti o oblakih: Rahlo oblačno 396 m
Pretežno oblačno 610 m
2018/12/13 15:00 LOAN 131500Z 09005KT 4000 BR FEW013ST BKN020SC
LIPQ - Ronchi Legionari, Italy
Oddaljenost od postaje: JZ 35km
Podatki zajeti: 13/12/2018 20:20
Pretežno oblačno
Pretežno oblačno
 Veter iz smeri V
Veter: V 24 km/h
Temperatura: 5°C
Občutek mraza zaradi vetra: 1°C
Rosišče: -4°C
Vlažnost: 53%
Tlak: 1016 hPa
Oblačnost: Pretežno oblačno
Vidljivost: 10 km
Podrobnosti o oblakih: Pretežno oblačno 1524 m
2018/12/13 19:20 LIPQ 131920Z 09013KT 9999 BKN050 05/M04 Q1016
 
LIVT - Trieste, Italy
Oddaljenost od postaje: ZJZ 109km
Podatki zajeti: 13/12/2018 19:55
Delno oblačno
Delno oblačno
 Veter iz smeri SSV
Veter: SSV 22 km/h, Sunek vetra: 52 km/h
Temperatura: 3°C
Občutek mraza zaradi vetra: -2°C
Rosišče: -1°C
Vlažnost: 75%
Tlak: 1015 hPa
Oblačnost: Delno oblačno
Vidljivost: 10 km
Podrobnosti o oblakih: Delno oblačno 762 m
2018/12/13 18:55 LIVT 131855Z 03012G28KT 9999 SCT025 03/M01 Q1015 RMK OVC SCT060 QUK / QUL / VIS MAR 20 KM VIS MIN 9999
LIVO - Tarvisio, Italy
Oddaljenost od postaje: SSZ 49km
Podatki zajeti: 13/12/2018 18:55
Ni posodobljen
Oblačno
Oblačno
 Veter iz smeri V
Veter: V 4 km/h
Temperatura: -2°C
Rosišče: -3°C
Vlažnost: 93%
Tlak: 1014 hPa
Oblačnost: Oblačno
Vidljivost: 10 km
Podrobnosti o oblakih: Oblačno 305 m
2018/12/13 17:55 LIVO 131755Z 10002KT 9999 OVC010 M02/M03 Q1014 RMK OVC VIS MIN 9999
 
LIPZ - Venezia/Tessera, Italy
Oddaljenost od postaje: ZJZ 217km
Podatki zajeti: 13/12/2018 20:20
Jasno
Jasno
 Veter iz smeri SV
Veter: SV 19 km/h
Temperatura: 3°C
Občutek mraza zaradi vetra: -2°C
Rosišče: -1°C
Vlažnost: 75%
Tlak: 1015 hPa
Stanje: Jasno
Vidljivost: večja od 10 km
2018/12/13 19:20 LIPZ 131920Z 04010KT CAVOK 03/M01 Q1015 NOSIG
LHSM - Balaton, Hungary
Oddaljenost od postaje: VSV 177km
Podatki zajeti: 13/12/2018 16:45
Ni posodobljen
Pretežno oblačno
Pretežno oblačno
 Veter iz smeri VSV
Veter: VSV 7 km/h
Temperatura: 0°C
Občutek mraza zaradi vetra: -3°C
Rosišče: -1°C
Vlažnost: 93%
Tlak: 1020 hPa
Oblačnost: Pretežno oblačno
Vidljivost: 10 km
Podrobnosti o oblakih: Pretežno oblačno 1219 m
2018/12/13 15:45 LHSM 131545Z 07004KT 9999 BKN040 M00/M01 Q1020